sensor_id;sensor_type;location;lat;lon;timestamp;pressure;altitude;pressure_sealevel;temperature;humidity
21821;BME280;11073;48.586;12.066;2022-10-24T00:01:55;96537.41;;;16.59;69.79
21821;BME280;11073;48.586;12.066;2022-10-24T00:04:23;96540.38;;;16.62;69.56
21821;BME280;11073;48.586;12.066;2022-10-24T00:06:52;96531.91;;;16.64;69.46
21821;BME280;11073;48.586;12.066;2022-10-24T00:09:20;96530.81;;;16.65;69.30
21821;BME280;11073;48.586;12.066;2022-10-24T00:11:49;96526.97;;;16.66;69.25
21821;BME280;11073;48.586;12.066;2022-10-24T00:14:19;96530.28;;;16.68;68.76
21821;BME280;11073;48.586;12.066;2022-10-24T00:16:48;96547.78;;;16.72;68.40
21821;BME280;11073;48.586;12.066;2022-10-24T00:19:16;96542.06;;;16.73;68.33
21821;BME280;11073;48.586;12.066;2022-10-24T00:21:45;96533.56;;;16.75;68.18
21821;BME280;11073;48.586;12.066;2022-10-24T00:24:13;96527.00;;;16.76;67.91
21821;BME280;11073;48.586;12.066;2022-10-24T00:26:42;96525.63;;;16.78;67.78
21821;BME280;11073;48.586;12.066;2022-10-24T00:29:11;96546.97;;;16.81;67.79
21821;BME280;11073;48.586;12.066;2022-10-24T00:31:41;96558.16;;;16.80;67.75
21821;BME280;11073;48.586;12.066;2022-10-24T00:34:10;96549.69;;;16.81;67.47
21821;BME280;11073;48.586;12.066;2022-10-24T00:36:39;96555.97;;;16.82;67.54
21821;BME280;11073;48.586;12.066;2022-10-24T00:39:09;96561.44;;;16.82;67.60
21821;BME280;11073;48.586;12.066;2022-10-24T00:41:41;96542.31;;;16.82;67.71
21821;BME280;11073;48.586;12.066;2022-10-24T00:44:16;96536.03;;;16.81;67.72
21821;BME280;11073;48.586;12.066;2022-10-24T00:46:50;96531.91;;;16.79;67.86
21821;BME280;11073;48.586;12.066;2022-10-24T00:49:22;96518.00;;;16.75;68.21
21821;BME280;11073;48.586;12.066;2022-10-24T00:51:53;96525.38;;;16.70;68.43
21821;BME280;11073;48.586;12.066;2022-10-24T00:54:23;96541.50;;;16.71;68.40
21821;BME280;11073;48.586;12.066;2022-10-24T00:57:05;96569.66;;;16.72;68.76
21821;BME280;11073;48.586;12.066;2022-10-24T00:59:35;96583.59;;;16.70;68.87
21821;BME280;11073;48.586;12.066;2022-10-24T01:02:09;96579.22;;;16.69;69.32
21821;BME280;11073;48.586;12.066;2022-10-24T01:04:38;96578.66;;;16.67;69.44
21821;BME280;11073;48.586;12.066;2022-10-24T01:07:16;96569.09;;;16.60;69.70
21821;BME280;11073;48.586;12.066;2022-10-24T01:10:02;96572.91;;;16.64;70.07
21821;BME280;11073;48.586;12.066;2022-10-24T01:12:46;96564.44;;;16.60;70.21
21821;BME280;11073;48.586;12.066;2022-10-24T01:15:23;96567.44;;;16.53;70.77
21821;BME280;11073;48.586;12.066;2022-10-24T01:18:00;96557.06;;;16.40;71.28
21821;BME280;11073;48.586;12.066;2022-10-24T01:20:57;96540.94;;;16.23;71.88
21821;BME280;11073;48.586;12.066;2022-10-24T01:26:55;96518.78;;;15.94;73.53
21821;BME280;11073;48.586;12.066;2022-10-24T01:29:44;96511.38;;;15.85;74.51
21821;BME280;11073;48.586;12.066;2022-10-24T01:32:19;96515.19;;;15.74;75.22
21821;BME280;11073;48.586;12.066;2022-10-24T01:34:54;96505.31;;;15.57;75.90
21821;BME280;11073;48.586;12.066;2022-10-24T01:37:28;96504.47;;;15.52;76.59
21821;BME280;11073;48.586;12.066;2022-10-24T01:40:04;96501.44;;;15.43;77.25
21821;BME280;11073;48.586;12.066;2022-10-24T01:42:35;96483.41;;;15.37;77.64
21821;BME280;11073;48.586;12.066;2022-10-24T01:45:09;96486.94;;;15.32;78.18
21821;BME280;11073;48.586;12.066;2022-10-24T01:47:42;96507.66;;;15.28;78.88
21821;BME280;11073;48.586;12.066;2022-10-24T01:50:15;96503.78;;;15.19;79.56
21821;BME280;11073;48.586;12.066;2022-10-24T01:52:47;96478.66;;;15.07;79.62
21821;BME280;11073;48.586;12.066;2022-10-24T01:55:17;96485.78;;;15.18;80.12
21821;BME280;11073;48.586;12.066;2022-10-24T01:57:46;96490.66;;;15.11;80.48
21821;BME280;11073;48.586;12.066;2022-10-24T02:00:18;96480.56;;;15.11;80.83
21821;BME280;11073;48.586;12.066;2022-10-24T02:02:51;96478.38;;;15.08;81.22
21821;BME280;11073;48.586;12.066;2022-10-24T02:05:25;96474.00;;;15.02;81.54
21821;BME280;11073;48.586;12.066;2022-10-24T02:08:03;96465.00;;;15.02;81.79
21821;BME280;11073;48.586;12.066;2022-10-24T02:10:36;96454.38;;;15.00;82.23
21821;BME280;11073;48.586;12.066;2022-10-24T02:13:09;96445.06;;;14.96;82.48
21821;BME280;11073;48.586;12.066;2022-10-24T02:15:45;96443.16;;;14.97;82.88
21821;BME280;11073;48.586;12.066;2022-10-24T02:18:16;96432.00;;;14.98;82.91
21821;BME280;11073;48.586;12.066;2022-10-24T02:20:51;96421.34;;;14.97;83.21
21821;BME280;11073;48.586;12.066;2022-10-24T02:23:25;96410.72;;;14.95;83.41
21821;BME280;11073;48.586;12.066;2022-10-24T02:25:57;96413.44;;;14.90;83.78
21821;BME280;11073;48.586;12.066;2022-10-24T02:28:30;96450.50;;;14.91;84.11
21821;BME280;11073;48.586;12.066;2022-10-24T02:31:19;96439.91;;;14.95;84.07
21821;BME280;11073;48.586;12.066;2022-10-24T02:33:50;96422.97;;;14.87;84.17
21821;BME280;11073;48.586;12.066;2022-10-24T02:36:24;96452.41;;;14.90;84.43
21821;BME280;11073;48.586;12.066;2022-10-24T02:38:55;96449.94;;;14.89;84.52
21821;BME280;11073;48.586;12.066;2022-10-24T02:41:28;96424.06;;;14.92;84.43
21821;BME280;11073;48.586;12.066;2022-10-24T02:44:00;96409.09;;;14.94;84.55
21821;BME280;11073;48.586;12.066;2022-10-24T02:46:31;96408.00;;;14.95;84.54
21821;BME280;11073;48.586;12.066;2022-10-24T02:49:03;96382.38;;;14.96;84.69
21821;BME280;11073;48.586;12.066;2022-10-24T02:51:36;96389.47;;;14.97;84.82
21821;BME280;11073;48.586;12.066;2022-10-24T02:54:06;96396.56;;;14.98;84.69
21821;BME280;11073;48.586;12.066;2022-10-24T02:56:36;96381.03;;;14.94;84.63
21821;BME280;11073;48.586;12.066;2022-10-24T02:59:06;96375.03;;;14.97;84.72
21821;BME280;11073;48.586;12.066;2022-10-24T03:01:41;96365.22;;;15.01;84.69
21821;BME280;11073;48.586;12.066;2022-10-24T03:04:10;96360.31;;;15.03;84.62
21821;BME280;11073;48.586;12.066;2022-10-24T03:06:40;96359.22;;;15.04;84.58
21821;BME280;11073;48.586;12.066;2022-10-24T03:09:09;96361.97;;;15.04;84.52
21821;BME280;11073;48.586;12.066;2022-10-24T03:11:38;96366.88;;;15.07;84.37
21821;BME280;11073;48.586;12.066;2022-10-24T03:14:06;96377.53;;;15.08;84.40
21821;BME280;11073;48.586;12.066;2022-10-24T03:16:35;96388.44;;;15.08;84.38
21821;BME280;11073;48.586;12.066;2022-10-24T03:19:05;96388.97;;;15.10;84.35
21821;BME280;11073;48.586;12.066;2022-10-24T03:21:34;96372.34;;;15.07;84.46
21821;BME280;11073;48.586;12.066;2022-10-24T03:24:03;96375.06;;;15.07;84.26
21821;BME280;11073;48.586;12.066;2022-10-24T03:26:37;96372.34;;;15.07;84.29
21821;BME280;11073;48.586;12.066;2022-10-24T03:29:06;96361.97;;;15.04;84.33
21821;BME280;11073;48.586;12.066;2022-10-24T03:31:35;96379.66;;;15.06;84.50
21821;BME280;11073;48.586;12.066;2022-10-24T03:34:04;96391.44;;;15.07;84.49
21821;BME280;11073;48.586;12.066;2022-10-24T03:36:34;96391.97;;;15.09;84.30
21821;BME280;11073;48.586;12.066;2022-10-24T03:39:03;96388.69;;;15.12;84.44
21821;BME280;11073;48.586;12.066;2022-10-24T03:41:32;96381.31;;;15.12;84.39
21821;BME280;11073;48.586;12.066;2022-10-24T03:44:01;96384.34;;;15.16;84.31
21821;BME280;11073;48.586;12.066;2022-10-24T03:46:30;96381.34;;;15.07;84.08
21821;BME280;11073;48.586;12.066;2022-10-24T03:48:59;96399.06;;;15.20;84.00
21821;BME280;11073;48.586;12.066;2022-10-24T03:51:34;96404.53;;;15.15;84.01
21821;BME280;11073;48.586;12.066;2022-10-24T03:54:03;96419.50;;;15.12;84.27
21821;BME280;11073;48.586;12.066;2022-10-24T03:56:31;96425.53;;;15.14;84.00
21821;BME280;11073;48.586;12.066;2022-10-24T03:59:00;96434.53;;;15.20;84.12
21821;BME280;11073;48.586;12.066;2022-10-24T04:01:29;96439.22;;;15.30;84.05
21821;BME280;11073;48.586;12.066;2022-10-24T04:03:58;96425.28;;;15.31;83.70
21821;BME280;11073;48.586;12.066;2022-10-24T04:06:27;96418.72;;;15.27;83.46
21821;BME280;11073;48.586;12.066;2022-10-24T04:09:02;96425.84;;;15.28;83.64
21821;BME280;11073;48.586;12.066;2022-10-24T04:11:31;96425.84;;;15.28;83.47
21821;BME280;11073;48.586;12.066;2022-10-24T04:14:00;96418.47;;;15.29;83.35
21821;BME280;11073;48.586;12.066;2022-10-24T04:16:34;96425.28;;;15.31;83.31
21821;BME280;11073;48.586;12.066;2022-10-24T04:19:03;96422.03;;;15.29;83.18
21821;BME280;11073;48.586;12.066;2022-10-24T04:21:32;96417.66;;;15.28;83.22
21821;BME280;11073;48.586;12.066;2022-10-24T04:24:02;96405.38;;;15.31;83.17
21821;BME280;11073;48.586;12.066;2022-10-24T04:26:31;96407.84;;;15.32;83.19
21821;BME280;11073;48.586;12.066;2022-10-24T04:29:00;96410.00;;;15.35;82.81
21821;BME280;11073;48.586;12.066;2022-10-24T04:31:29;96426.13;;;15.32;82.88
21821;BME280;11073;48.586;12.066;2022-10-24T04:33:57;96427.75;;;15.33;82.89
21821;BME280;11073;48.586;12.066;2022-10-24T04:36:26;96422.84;;;15.35;83.01
21821;BME280;11073;48.586;12.066;2022-10-24T04:38:55;96424.19;;;15.32;82.86
21821;BME280;11073;48.586;12.066;2022-10-24T04:41:25;96429.13;;;15.30;82.64
21821;BME280;11073;48.586;12.066;2022-10-24T04:43:53;96428.56;;;15.33;82.87
21821;BME280;11073;48.586;12.066;2022-10-24T04:46:22;96431.56;;;15.32;82.80
21821;BME280;11073;48.586;12.066;2022-10-24T04:48:51;96445.22;;;15.37;82.62
21821;BME280;11073;48.586;12.066;2022-10-24T04:51:20;96451.50;;;15.37;82.75
21821;BME280;11073;48.586;12.066;2022-10-24T04:53:49;96440.59;;;15.48;82.77
21821;BME280;11073;48.586;12.066;2022-10-24T04:56:18;96452.59;;;15.47;82.62
21821;BME280;11073;48.586;12.066;2022-10-24T04:58:48;96454.25;;;15.48;82.38
21821;BME280;11073;48.586;12.066;2022-10-24T05:01:17;96464.59;;;15.45;82.39
21821;BME280;11073;48.586;12.066;2022-10-24T05:03:46;96458.34;;;15.50;82.33
21821;BME280;11073;48.586;12.066;2022-10-24T05:06:15;96444.41;;;15.47;82.46
21821;BME280;11073;48.586;12.066;2022-10-24T05:08:44;96452.34;;;15.43;82.34
21821;BME280;11073;48.586;12.066;2022-10-24T05:11:13;96450.44;;;15.43;82.51
21821;BME280;11073;48.586;12.066;2022-10-24T05:13:41;96448.22;;;15.40;82.46
21821;BME280;11073;48.586;12.066;2022-10-24T05:16:12;96436.75;;;15.28;82.52
21821;BME280;11073;48.586;12.066;2022-10-24T05:18:40;96453.09;;;15.23;82.73
21821;BME280;11073;48.586;12.066;2022-10-24T05:21:09;96458.53;;;15.23;82.84
21821;BME280;11073;48.586;12.066;2022-10-24T05:23:38;96463.97;;;15.18;82.96
21821;BME280;11073;48.586;12.066;2022-10-24T05:26:07;96457.16;;;15.15;83.27
21821;BME280;11073;48.586;12.066;2022-10-24T05:28:36;96432.59;;;15.10;83.55
21821;BME280;11073;48.586;12.066;2022-10-24T05:31:04;96439.69;;;15.11;83.63
21821;BME280;11073;48.586;12.066;2022-10-24T05:33:34;96442.13;;;15.13;83.81
21821;BME280;11073;48.586;12.066;2022-10-24T05:36:04;96445.13;;;15.11;83.74
21821;BME280;11073;48.586;12.066;2022-10-24T05:38:33;96456.31;;;15.10;83.77
21821;BME280;11073;48.586;12.066;2022-10-24T05:41:02;96464.75;;;15.08;83.85
21821;BME280;11073;48.586;12.066;2022-10-24T05:43:31;96472.38;;;15.06;84.03
21821;BME280;11073;48.586;12.066;2022-10-24T05:45:59;96467.50;;;15.08;84.10
21821;BME280;11073;48.586;12.066;2022-10-24T05:48:27;96470.22;;;15.08;84.12
21821;BME280;11073;48.586;12.066;2022-10-24T05:50:57;96466.09;;;15.06;84.24
21821;BME280;11073;48.586;12.066;2022-10-24T05:53:26;96472.13;;;15.08;84.31
21821;BME280;11073;48.586;12.066;2022-10-24T05:55:55;96469.41;;;15.13;84.17
21821;BME280;11073;48.586;12.066;2022-10-24T05:58:24;96475.66;;;15.13;84.08
21821;BME280;11073;48.586;12.066;2022-10-24T06:00:54;96480.31;;;15.18;84.05
21821;BME280;11073;48.586;12.066;2022-10-24T06:03:22;96476.78;;;15.17;84.05
21821;BME280;11073;48.586;12.066;2022-10-24T06:05:51;96480.06;;;15.20;83.98
21821;BME280;11073;48.586;12.066;2022-10-24T06:08:21;96483.59;;;15.20;83.85
21821;BME280;11073;48.586;12.066;2022-10-24T06:10:50;96490.72;;;15.21;83.83
21821;BME280;11073;48.586;12.066;2022-10-24T06:13:19;96495.06;;;15.17;83.71
21821;BME280;11073;48.586;12.066;2022-10-24T06:15:48;96490.16;;;15.19;83.96
21821;BME280;11073;48.586;12.066;2022-10-24T06:18:17;96491.53;;;15.22;83.88
21821;BME280;11073;48.586;12.066;2022-10-24T06:20:46;96501.09;;;15.24;83.79
21821;BME280;11073;48.586;12.066;2022-10-24T06:23:22;96499.47;;;15.28;83.75
21821;BME280;11073;48.586;12.066;2022-10-24T06:25:51;96500.03;;;15.30;83.80
21821;BME280;11073;48.586;12.066;2022-10-24T06:28:20;96505.19;;;15.27;83.64
21821;BME280;11073;48.586;12.066;2022-10-24T06:30:50;96504.94;;;15.28;83.79
21821;BME280;11073;48.586;12.066;2022-10-24T06:33:21;96516.38;;;15.30;83.75
21821;BME280;11073;48.586;12.066;2022-10-24T06:35:49;96516.13;;;15.32;83.76
21821;BME280;11073;48.586;12.066;2022-10-24T06:38:18;96519.66;;;15.32;83.63
21821;BME280;11073;48.586;12.066;2022-10-24T06:40:48;96515.84;;;15.33;83.69
21821;BME280;11073;48.586;12.066;2022-10-24T06:43:21;96514.47;;;15.31;83.72
21821;BME280;11073;48.586;12.066;2022-10-24T06:45:50;96518.88;;;15.42;83.81
21821;BME280;11073;48.586;12.066;2022-10-24T06:48:18;96512.91;;;15.50;83.80
21821;BME280;11073;48.586;12.066;2022-10-24T06:50:46;96516.47;;;15.51;83.77
21821;BME280;11073;48.586;12.066;2022-10-24T06:53:15;96513.72;;;15.56;83.44
21821;BME280;11073;48.586;12.066;2022-10-24T06:55:44;96513.50;;;15.57;83.34
21821;BME280;11073;48.586;12.066;2022-10-24T06:58:14;96515.38;;;15.57;83.32
21821;BME280;11073;48.586;12.066;2022-10-24T07:00:44;96520.81;;;15.57;83.19
21821;BME280;11073;48.586;12.066;2022-10-24T07:03:13;96521.94;;;15.61;83.11
21821;BME280;11073;48.586;12.066;2022-10-24T07:05:43;96522.19;;;15.54;83.09
21821;BME280;11073;48.586;12.066;2022-10-24T07:08:11;96520.28;;;15.55;83.17
21821;BME280;11073;48.586;12.066;2022-10-24T07:10:40;96516.75;;;15.59;83.31
21821;BME280;11073;48.586;12.066;2022-10-24T07:13:08;96503.63;;;15.56;83.07
21821;BME280;11073;48.586;12.066;2022-10-24T07:15:39;96499.00;;;15.52;83.23
21821;BME280;11073;48.586;12.066;2022-10-24T07:18:12;96506.63;;;15.55;83.18
21821;BME280;11073;48.586;12.066;2022-10-24T07:20:42;96505.81;;;15.54;83.11
21821;BME280;11073;48.586;12.066;2022-10-24T07:23:11;96481.28;;;15.54;83.24
21821;BME280;11073;48.586;12.066;2022-10-24T07:25:40;96489.72;;;15.53;83.16
21821;BME280;11073;48.586;12.066;2022-10-24T07:28:09;96480.97;;;15.45;83.28
21821;BME280;11073;48.586;12.066;2022-10-24T07:30:42;96492.97;;;15.44;83.54
21821;BME280;11073;48.586;12.066;2022-10-24T07:33:11;96485.06;;;15.48;83.53
21821;BME280;11073;48.586;12.066;2022-10-24T07:35:43;96463.50;;;15.41;83.64
21821;BME280;11073;48.586;12.066;2022-10-24T07:38:11;96483.19;;;15.54;83.73
21821;BME280;11073;48.586;12.066;2022-10-24T07:40:44;96484.53;;;15.56;83.73
21821;BME280;11073;48.586;12.066;2022-10-24T07:43:14;96484.03;;;15.59;83.76
21821;BME280;11073;48.586;12.066;2022-10-24T07:45:45;96490.06;;;15.61;83.80
21821;BME280;11073;48.586;12.066;2022-10-24T07:48:18;96486.44;;;15.56;83.84
21821;BME280;11073;48.586;12.066;2022-10-24T07:50:47;96483.97;;;15.49;84.38
21821;BME280;11073;48.586;12.066;2022-10-24T07:53:15;96497.09;;;15.52;84.34
21821;BME280;11073;48.586;12.066;2022-10-24T07:55:44;96503.91;;;15.55;84.49
21821;BME280;11073;48.586;12.066;2022-10-24T07:58:13;96500.66;;;15.58;84.31
21821;BME280;11073;48.586;12.066;2022-10-24T08:00:42;96500.97;;;15.61;84.22
21821;BME280;11073;48.586;12.066;2022-10-24T08:03:13;96492.47;;;15.58;84.35
21821;BME280;11073;48.586;12.066;2022-10-24T08:05:42;96492.19;;;15.59;84.63
21821;BME280;11073;48.586;12.066;2022-10-24T08:08:10;96485.94;;;15.59;84.35
21821;BME280;11073;48.586;12.066;2022-10-24T08:10:59;96500.13;;;15.61;84.44
21821;BME280;11073;48.586;12.066;2022-10-24T08:13:28;96500.44;;;15.64;84.43
21821;BME280;11073;48.586;12.066;2022-10-24T08:15:57;96511.91;;;15.66;84.22
21821;BME280;11073;48.586;12.066;2022-10-24T08:18:27;96510.53;;;15.69;84.39
21821;BME280;11073;48.586;12.066;2022-10-24T08:20:58;96497.72;;;15.69;84.42
21821;BME280;11073;48.586;12.066;2022-10-24T08:23:27;96490.88;;;15.67;84.42
21821;BME280;11073;48.586;12.066;2022-10-24T08:25:56;96493.06;;;15.65;84.28
21821;BME280;11073;48.586;12.066;2022-10-24T08:28:24;96514.91;;;15.70;84.39
21821;BME280;11073;48.586;12.066;2022-10-24T08:30:55;96510.56;;;15.74;84.37
21821;BME280;11073;48.586;12.066;2022-10-24T08:33:24;96512.72;;;15.77;84.08
21821;BME280;11073;48.586;12.066;2022-10-24T08:35:58;96508.38;;;15.81;84.12
21821;BME280;11073;48.586;12.066;2022-10-24T08:38:28;96495.25;;;15.78;83.99
21821;BME280;11073;48.586;12.066;2022-10-24T08:40:57;96505.94;;;15.80;83.84
21821;BME280;11073;48.586;12.066;2022-10-24T08:43:27;96507.28;;;15.82;83.78
21821;BME280;11073;48.586;12.066;2022-10-24T08:46:02;96497.50;;;15.86;83.62
21821;BME280;11073;48.586;12.066;2022-10-24T08:48:39;96495.81;;;15.85;83.44
21821;BME280;11073;48.586;12.066;2022-10-24T08:51:20;96491.47;;;15.89;83.14
21821;BME280;11073;48.586;12.066;2022-10-24T08:53:53;96484.63;;;15.92;82.94
21821;BME280;11073;48.586;12.066;2022-10-24T08:56:27;96482.72;;;15.92;82.94
21821;BME280;11073;48.586;12.066;2022-10-24T08:58:58;96477.53;;;15.91;83.12
21821;BME280;11073;48.586;12.066;2022-10-24T09:01:30;96485.72;;;15.91;82.94
21821;BME280;11073;48.586;12.066;2022-10-24T09:04:04;96492.81;;;15.92;82.83
21821;BME280;11073;48.586;12.066;2022-10-24T09:06:36;96494.47;;;15.93;82.79
21821;BME280;11073;48.586;12.066;2022-10-24T09:09:11;96480.56;;;15.99;82.86
21821;BME280;11073;48.586;12.066;2022-10-24T09:11:46;96476.75;;;16.06;82.58
21821;BME280;11073;48.586;12.066;2022-10-24T09:14:19;96491.50;;;16.10;82.48
21821;BME280;11073;48.586;12.066;2022-10-24T09:16:51;96484.38;;;16.14;82.24
21821;BME280;11073;48.586;12.066;2022-10-24T09:19:23;96486.28;;;16.13;82.01
21821;BME280;11073;48.586;12.066;2022-10-24T09:21:54;96506.78;;;16.26;81.84
21821;BME280;11073;48.586;12.066;2022-10-24T09:24:31;96498.59;;;16.26;81.56
21821;BME280;11073;48.586;12.066;2022-10-24T09:27:04;96512.53;;;16.24;81.34
21821;BME280;11073;48.586;12.066;2022-10-24T09:29:34;96505.69;;;16.27;81.51
21821;BME280;11073;48.586;12.066;2022-10-24T09:32:03;96507.59;;;16.26;81.13
21821;BME280;11073;48.586;12.066;2022-10-24T09:34:32;96524.28;;;16.30;81.38
21821;BME280;11073;48.586;12.066;2022-10-24T09:37:02;96527.84;;;16.31;81.21
21821;BME280;11073;48.586;12.066;2022-10-24T09:39:32;96534.66;;;16.28;81.11
21821;BME280;11073;48.586;12.066;2022-10-24T09:42:02;96524.81;;;16.27;81.22
21821;BME280;11073;48.586;12.066;2022-10-24T09:44:33;96517.16;;;16.29;81.06
21821;BME280;11073;48.586;12.066;2022-10-24T09:47:06;96502.41;;;16.35;81.33
21821;BME280;11073;48.586;12.066;2022-10-24T09:49:38;96501.06;;;16.33;80.89
21821;BME280;11073;48.586;12.066;2022-10-24T09:52:16;96511.19;;;16.37;80.85
21821;BME280;11073;48.586;12.066;2022-10-24T09:55:03;96514.97;;;16.36;80.92
21821;BME280;11073;48.586;12.066;2022-10-24T09:57:37;96516.34;;;16.39;81.12
21821;BME280;11073;48.586;12.066;2022-10-24T10:00:19;96514.44;;;16.44;80.96
21821;BME280;11073;48.586;12.066;2022-10-24T10:03:03;96533.28;;;16.46;80.67
21821;BME280;11073;48.586;12.066;2022-10-24T10:05:45;96542.31;;;16.46;80.64
21821;BME280;11073;48.586;12.066;2022-10-24T10:08:19;96543.94;;;16.42;80.62
21821;BME280;11073;48.586;12.066;2022-10-24T10:11:00;96548.31;;;16.38;80.57
21821;BME280;11073;48.586;12.066;2022-10-24T10:13:30;96551.31;;;16.37;80.87
21821;BME280;11073;48.586;12.066;2022-10-24T10:16:05;96557.31;;;16.34;80.72
21821;BME280;11073;48.586;12.066;2022-10-24T10:18:43;96570.72;;;16.35;80.76
21821;BME280;11073;48.586;12.066;2022-10-24T10:21:15;96564.44;;;16.35;80.76
21821;BME280;11073;48.586;12.066;2022-10-24T10:23:47;96569.88;;;16.35;80.81
21821;BME280;11073;48.586;12.066;2022-10-24T10:26:24;96580.28;;;16.33;80.65
21821;BME280;11073;48.586;12.066;2022-10-24T10:28:58;96569.63;;;16.31;80.80
21821;BME280;11073;48.586;12.066;2022-10-24T10:31:32;96561.44;;;16.31;80.78
21821;BME280;11073;48.586;12.066;2022-10-24T10:34:16;96568.25;;;16.28;80.68
21821;BME280;11073;48.586;12.066;2022-10-24T10:36:56;96570.97;;;16.28;80.84
21821;BME280;11073;48.586;12.066;2022-10-24T10:39:39;96565.25;;;16.25;81.11
21821;BME280;11073;48.586;12.066;2022-10-24T10:42:16;96559.78;;;16.25;81.21
21821;BME280;11073;48.586;12.066;2022-10-24T10:44:58;96553.25;;;16.31;81.23
21821;BME280;11073;48.586;12.066;2022-10-24T10:47:35;96555.97;;;16.31;81.31
21821;BME280;11073;48.586;12.066;2022-10-24T10:50:21;96557.31;;;16.34;81.50
21821;BME280;11073;48.586;12.066;2022-10-24T10:52:54;96564.16;;;16.36;81.37
21821;BME280;11073;48.586;12.066;2022-10-24T10:55:30;96552.94;;;16.43;81.50
21821;BME280;11073;48.586;12.066;2022-10-24T10:58:11;96551.31;;;16.47;81.46
21821;BME280;11073;48.586;12.066;2022-10-24T11:00:49;96557.03;;;16.50;81.38
21821;BME280;11073;48.586;12.066;2022-10-24T11:03:33;96549.41;;;16.42;81.21
21821;BME280;11073;48.586;12.066;2022-10-24T11:06:17;96561.72;;;16.40;81.27
21821;BME280;11073;48.586;12.066;2022-10-24T11:09:05;96561.97;;;16.38;81.19
21821;BME280;11073;48.586;12.066;2022-10-24T11:11:42;96555.13;;;16.36;81.38
21821;BME280;11073;48.586;12.066;2022-10-24T11:14:24;96554.31;;;16.35;81.51
21821;BME280;11073;48.586;12.066;2022-10-24T11:17:00;96547.75;;;16.36;81.45
21821;BME280;11073;48.586;12.066;2022-10-24T11:19:38;96536.56;;;16.38;81.62
21821;BME280;11073;48.586;12.066;2022-10-24T11:22:14;96540.38;;;16.42;81.33
21821;BME280;11073;48.586;12.066;2022-10-24T11:24:52;96524.53;;;16.44;81.47
21821;BME280;11073;48.586;12.066;2022-10-24T11:27:27;96522.09;;;16.37;81.52
21821;BME280;11073;48.586;12.066;2022-10-24T11:30:03;96553.78;;;16.38;81.51
21821;BME280;11073;48.586;12.066;2022-10-24T11:32:35;96554.31;;;16.35;81.66
21821;BME280;11073;48.586;12.066;2022-10-24T11:35:16;96578.09;;;16.35;81.76
21821;BME280;11073;48.586;12.066;2022-10-24T11:37:49;96559.78;;;16.35;81.72
21821;BME280;11073;48.586;12.066;2022-10-24T11:40:21;96556.50;;;16.33;81.73
21821;BME280;11073;48.586;12.066;2022-10-24T11:42:55;96544.50;;;16.39;81.94
21821;BME280;11073;48.586;12.066;2022-10-24T11:45:27;96535.47;;;16.39;81.78
21821;BME280;11073;48.586;12.066;2022-10-24T11:48:03;96535.75;;;16.42;81.72
21821;BME280;11073;48.586;12.066;2022-10-24T11:50:38;96545.56;;;16.43;81.46
21821;BME280;11073;48.586;12.066;2022-10-24T11:53:21;96550.78;;;16.45;81.36
21821;BME280;11073;48.586;12.066;2022-10-24T11:55:53;96555.69;;;16.48;81.47
21821;BME280;11073;48.586;12.066;2022-10-24T11:58:27;96563.06;;;16.47;81.01
21821;BME280;11073;48.586;12.066;2022-10-24T12:01:12;96571.81;;;16.49;81.12
21821;BME280;11073;48.586;12.066;2022-10-24T12:04:01;96558.44;;;16.48;80.98
21821;BME280;11073;48.586;12.066;2022-10-24T12:06:55;96562.25;;;16.52;80.83
21821;BME280;11073;48.586;12.066;2022-10-24T12:09:43;96565.53;;;16.54;80.90
21821;BME280;11073;48.586;12.066;2022-10-24T12:12:25;96549.41;;;16.52;80.95
21821;BME280;11073;48.586;12.066;2022-10-24T12:15:23;96551.31;;;16.47;80.87
21821;BME280;11073;48.586;12.066;2022-10-24T12:18:03;96552.16;;;16.37;80.69
21821;BME280;11073;48.586;12.066;2022-10-24T12:20:33;96557.31;;;16.34;81.07
21821;BME280;11073;48.586;12.066;2022-10-24T12:23:03;96558.44;;;16.38;81.11
21821;BME280;11073;48.586;12.066;2022-10-24T12:25:33;96554.03;;;16.37;80.94
21821;BME280;11073;48.586;12.066;2022-10-24T12:28:04;96554.06;;;16.32;81.10
21821;BME280;11073;48.586;12.066;2022-10-24T12:30:36;96559.22;;;16.28;81.23
21821;BME280;11073;48.586;12.066;2022-10-24T12:33:18;96556.22;;;16.24;81.45
21821;BME280;11073;48.586;12.066;2022-10-24T12:35:51;96561.41;;;16.16;81.62
21821;BME280;11073;48.586;12.066;2022-10-24T12:41:39;96557.81;;;16.00;82.04
21821;BME280;11073;48.586;12.066;2022-10-24T12:44:38;96555.09;;;15.95;82.56
21821;BME280;11073;48.586;12.066;2022-10-24T12:47:41;96557.00;;;15.89;83.08
21821;BME280;11073;48.586;12.066;2022-10-24T12:53:19;96558.59;;;15.80;83.43
21821;BME280;11073;48.586;12.066;2022-10-24T12:56:11;96556.97;;;15.79;83.52
21821;BME280;11073;48.586;12.066;2022-10-24T12:58:43;96553.97;;;15.81;83.77
21821;BME280;11073;48.586;12.066;2022-10-24T13:01:23;96544.94;;;15.75;83.92
21821;BME280;11073;48.586;12.066;2022-10-24T13:04:05;96551.22;;;15.76;83.98
21821;BME280;11073;48.586;12.066;2022-10-24T13:06:47;96529.69;;;15.79;84.02
21821;BME280;11073;48.586;12.066;2022-10-24T13:09:30;96516.84;;;15.75;84.08
21821;BME280;11073;48.586;12.066;2022-10-24T13:12:12;96523.09;;;15.70;84.35
21821;BME280;11073;48.586;12.066;2022-10-24T13:14:54;96499.88;;;15.62;84.46
21821;BME280;11073;48.586;12.066;2022-10-24T13:17:32;96490.56;;;15.58;84.88
21821;BME280;11073;48.586;12.066;2022-10-24T13:20:15;96494.66;;;15.61;85.11
21821;BME280;11073;48.586;12.066;2022-10-24T13:22:45;96488.09;;;15.57;85.21
21821;BME280;11073;48.586;12.066;2022-10-24T13:25:19;96470.09;;;15.51;85.35
21821;BME280;11073;48.586;12.066;2022-10-24T13:34:30;96464.00;;;15.23;86.58
21821;BME280;11073;48.586;12.066;2022-10-24T13:37:06;96455.75;;;15.13;87.02